createdAt,value
2023-11-24T00:02:17.137Z,40.53
2023-11-24T00:07:28.314Z,41.28
2023-11-24T00:12:33.360Z,49.00
2023-11-24T00:17:39.307Z,45.92
2023-11-24T00:22:45.474Z,51.00
2023-11-24T00:27:51.050Z,52.90
2023-11-24T00:32:55.830Z,48.60
2023-11-24T00:38:01.357Z,45.58
2023-11-24T00:43:07.269Z,36.22
2023-11-24T00:48:11.809Z,31.30
2023-11-24T00:53:17.761Z,40.75
2023-11-24T00:58:21.887Z,50.53
2023-11-24T01:03:27.619Z,40.90
2023-11-24T01:08:33.311Z,42.15
2023-11-24T01:13:40.188Z,31.05
2023-11-24T01:18:44.573Z,33.40
2023-11-24T01:23:52.587Z,68.85
2023-11-24T01:28:57.893Z,47.03
2023-11-24T01:34:02.401Z,41.33
2023-11-24T01:39:11.140Z,37.15
2023-11-24T01:44:15.297Z,36.25
2023-11-24T01:49:19.459Z,56.72
2023-11-24T01:54:27.742Z,50.35
2023-11-24T01:59:32.023Z,60.03
2023-11-24T02:04:36.078Z,45.25
2023-11-24T02:09:43.540Z,45.65
2023-11-24T02:14:47.820Z,43.38
2023-11-24T02:19:53.668Z,46.75
2023-11-24T02:24:59.501Z,39.55
2023-11-24T02:30:04.913Z,46.30
2023-11-24T02:35:11.227Z,43.50
2023-11-24T02:40:17.412Z,40.50
2023-11-24T02:45:21.914Z,29.05
2023-11-24T02:50:26.856Z,32.17
2023-11-24T02:55:32.302Z,29.48
2023-11-24T03:00:37.371Z,29.20
2023-11-24T03:05:41.608Z,26.52
2023-11-24T03:10:47.228Z,27.02
2023-11-24T03:15:51.362Z,32.08
2023-11-24T03:20:55.445Z,33.53
2023-11-24T03:26:03.758Z,36.13
2023-11-24T03:31:08.145Z,43.47
2023-11-24T03:36:31.179Z,34.67
2023-11-24T03:41:37.516Z,40.65
2023-11-24T03:46:42.076Z,30.30
2023-11-24T03:51:46.125Z,32.65
2023-11-24T03:56:51.660Z,39.80
2023-11-24T04:01:55.801Z,33.65
2023-11-24T04:07:01.452Z,29.67
2023-11-24T04:12:07.468Z,30.90
2023-11-24T04:17:12.025Z,33.60
2023-11-24T04:22:16.984Z,21.55
2023-11-24T04:27:22.628Z,22.50
2023-11-24T04:32:26.878Z,21.48
2023-11-24T04:37:30.836Z,22.98
2023-11-24T04:42:36.325Z,34.03
2023-11-24T04:47:41.240Z,49.55
2023-11-24T04:52:45.349Z,26.05
2023-11-24T04:57:52.003Z,25.85
2023-11-24T05:02:55.997Z,33.80
2023-11-24T05:08:00.742Z,24.35
2023-11-24T05:13:06.357Z,24.70
2023-11-24T05:18:10.373Z,131.77
2023-11-24T05:23:15.635Z,93.07
2023-11-24T05:28:21.098Z,71.97
2023-11-24T05:33:25.214Z,100.75
2023-11-24T05:38:29.446Z,98.07
2023-11-24T05:43:35.380Z,97.20
2023-11-24T05:48:39.975Z,238.05
2023-11-24T05:53:44.254Z,146.60
2023-11-24T05:58:52.556Z,85.07
2023-11-24T06:03:56.694Z,140.73
2023-11-24T06:09:01.116Z,171.50
2023-11-24T06:14:06.646Z,156.23
2023-11-24T06:19:10.797Z,112.22
2023-11-24T06:24:14.908Z,99.65
2023-11-24T06:29:23.124Z,63.50
2023-11-24T06:34:28.839Z,64.55
2023-11-24T06:39:33.371Z,101.78
2023-11-24T06:44:41.304Z,109.70
2023-11-24T06:49:45.611Z,102.45
2023-11-24T06:54:50.152Z,78.90
2023-11-24T06:59:56.972Z,75.00
2023-11-24T07:05:01.306Z,190.00
2023-11-24T07:10:06.916Z,139.20
2023-11-24T07:15:13.828Z,73.40
2023-11-24T07:20:19.253Z,48.00
2023-11-24T07:25:23.444Z,43.58
2023-11-24T07:30:32.388Z,53.22
2023-11-24T07:35:36.555Z,59.35
2023-11-24T07:40:40.825Z,24.15
2023-11-24T07:45:52.553Z,32.35
2023-11-24T07:50:56.626Z,54.28
2023-11-24T07:56:01.198Z,54.38
2023-11-24T08:01:08.922Z,50.30
2023-11-24T08:06:16.175Z,40.63
2023-11-24T08:11:20.882Z,61.00
2023-11-24T08:16:27.801Z,47.25
2023-11-24T08:21:35.774Z,64.40
2023-11-24T08:26:40.667Z,42.38
2023-11-24T08:31:51.440Z,30.98
2023-11-24T08:36:56.351Z,25.50
2023-11-24T08:42:00.647Z,31.83
2023-11-24T08:47:07.498Z,17.98
2023-11-24T08:52:12.064Z,22.05
2023-11-24T08:57:17.115Z,27.83
2023-11-24T09:02:23.514Z,32.83
2023-11-24T09:07:31.452Z,26.52
2023-11-24T09:12:36.057Z,33.28
2023-11-24T09:17:41.870Z,31.58
2023-11-24T09:22:46.618Z,29.27
2023-11-24T09:27:50.721Z,27.98
2023-11-24T09:32:56.634Z,25.63
2023-11-24T09:38:01.037Z,34.63
2023-11-24T09:43:06.455Z,42.10
2023-11-24T09:48:16.092Z,47.17
2023-11-24T09:53:20.828Z,38.28
2023-11-24T09:58:27.113Z,28.45
2023-11-24T10:03:32.949Z,29.98
2023-11-24T10:08:38.097Z,28.88
2023-11-24T10:13:43.094Z,21.83
2023-11-24T10:18:48.611Z,22.05
2023-11-24T10:23:52.718Z,27.10
2023-11-24T10:28:58.817Z,27.02
2023-11-24T10:34:05.649Z,21.35
2023-11-24T10:39:13.411Z,18.02
2023-11-24T10:44:20.540Z,49.88
2023-11-24T10:49:35.969Z,26.92
2023-11-24T10:54:46.413Z,13.55
2023-11-24T10:59:52.456Z,10.93
2023-11-24T11:05:08.508Z,14.68
2023-11-24T11:10:15.263Z,16.75
2023-11-24T11:15:26.442Z,30.70
2023-11-24T11:20:38.713Z,19.30
2023-11-24T11:25:46.008Z,20.60
2023-11-24T11:30:51.457Z,25.45
2023-11-24T11:36:07.069Z,47.45
2023-11-24T11:41:11.726Z,57.75
2023-11-24T11:46:16.745Z,51.53
2023-11-24T11:51:23.671Z,31.00
2023-11-24T11:56:28.315Z,18.50
2023-11-24T12:01:36.862Z,17.83
2023-11-24T12:06:42.554Z,22.92
2023-11-24T12:11:48.588Z,33.03
2023-11-24T12:16:55.029Z,13.68
2023-11-24T12:22:03.661Z,25.10
2023-11-24T12:27:09.887Z,18.40
2023-11-24T12:32:15.454Z,15.15
2023-11-24T12:37:25.556Z,30.45
2023-11-24T12:42:31.831Z,17.13
2023-11-24T12:47:42.227Z,16.00
2023-11-24T12:52:54.301Z,14.88
2023-11-24T12:58:03.156Z,9.93
2023-11-24T13:03:10.542Z,13.15
2023-11-24T13:08:22.409Z,14.13
2023-11-24T13:13:29.598Z,19.33
2023-11-24T13:18:35.704Z,23.27
2023-11-24T13:23:42.440Z,31.30
2023-11-24T13:28:46.665Z,34.80
2023-11-24T13:33:50.724Z,43.03
2023-11-24T13:39:00.482Z,29.05
2023-11-24T13:44:05.455Z,28.80
2023-11-24T13:49:11.047Z,30.60
2023-11-24T13:54:17.164Z,28.80
2023-11-24T13:59:22.746Z,38.33
2023-11-24T14:04:28.336Z,59.33
2023-11-24T14:09:35.127Z,52.40
2023-11-24T14:14:39.560Z,20.95
2023-11-24T14:19:45.207Z,30.83
2023-11-24T14:24:50.929Z,38.00
2023-11-24T14:29:55.317Z,23.88
2023-11-24T14:35:01.178Z,29.40
2023-11-24T14:40:19.317Z,47.60
2023-11-24T14:45:27.233Z,31.13
2023-11-24T14:50:32.984Z,50.97
2023-11-24T14:55:38.386Z,106.78
2023-11-24T15:00:42.748Z,73.75
2023-11-24T15:05:53.632Z,69.78
2023-11-24T15:11:05.117Z,47.50
2023-11-24T15:16:13.643Z,63.45
2023-11-24T15:21:29.567Z,58.17
2023-11-24T15:26:37.415Z,54.95
2023-11-24T15:31:42.954Z,31.70
2023-11-24T15:36:47.327Z,45.63
2023-11-24T15:41:53.331Z,95.93
2023-11-24T15:46:57.562Z,86.80
2023-11-24T15:52:08.840Z,80.50
2023-11-24T15:57:20.007Z,58.08
2023-11-24T16:02:27.534Z,87.60
2023-11-24T16:07:38.386Z,131.45
2023-11-24T16:12:48.356Z,135.70
2023-11-24T16:17:52.990Z,142.60
2023-11-24T16:22:57.481Z,167.20
2023-11-24T16:28:04.484Z,198.15
2023-11-24T16:33:13.776Z,194.23
2023-11-24T16:38:20.884Z,140.55
2023-11-24T16:43:26.682Z,175.70
2023-11-24T16:48:30.739Z,299.75
2023-11-24T16:53:34.710Z,198.77
2023-11-24T16:58:40.188Z,143.75
2023-11-24T17:03:44.943Z,97.43
2023-11-24T17:08:49.192Z,84.63
2023-11-24T17:13:55.477Z,68.05
2023-11-24T17:19:02.417Z,41.22
2023-11-24T17:24:07.222Z,52.35
2023-11-24T17:29:16.713Z,66.57
2023-11-24T17:34:21.464Z,84.30
2023-11-24T17:39:25.681Z,71.95
2023-11-24T17:44:33.508Z,70.13
2023-11-24T17:49:38.697Z,67.07
2023-11-24T17:54:42.830Z,58.70
2023-11-24T17:59:51.182Z,97.43
2023-11-24T18:04:55.306Z,68.17
2023-11-24T18:09:59.399Z,56.28
2023-11-24T18:15:06.172Z,61.92
2023-11-24T18:20:14.602Z,46.83
2023-11-24T18:30:25.853Z,55.78
2023-11-24T18:35:30.154Z,45.28
2023-11-24T18:40:34.898Z,44.47
2023-11-24T18:45:40.292Z,60.53
2023-11-24T18:50:46.884Z,61.35
2023-11-24T18:55:50.871Z,75.75
2023-11-24T19:00:56.346Z,60.95
2023-11-24T19:06:02.694Z,51.45
2023-11-24T19:11:07.551Z,39.75
2023-11-24T19:16:14.261Z,80.60
2023-11-24T19:21:19.583Z,121.25
2023-11-24T19:26:24.552Z,159.65
2023-11-24T19:31:30.420Z,112.00
2023-11-24T19:36:34.552Z,48.47
2023-11-24T19:41:38.654Z,88.15
2023-11-24T19:46:44.827Z,118.63
2023-11-24T19:51:49.059Z,129.27
2023-11-24T19:56:53.006Z,52.15
2023-11-24T20:01:59.984Z,62.80
2023-11-24T20:07:05.049Z,42.03
2023-11-24T20:12:10.810Z,39.90
2023-11-24T20:17:17.610Z,48.83
2023-11-24T20:22:21.737Z,45.13
2023-11-24T20:27:26.083Z,84.13
2023-11-24T20:32:33.410Z,72.15
2023-11-24T20:37:39.888Z,97.50
2023-11-24T20:42:44.156Z,98.28
2023-11-24T20:47:50.646Z,87.18
2023-11-24T20:52:55.116Z,45.25
2023-11-24T20:57:59.341Z,50.80
2023-11-24T21:03:05.264Z,48.30
2023-11-24T21:08:09.447Z,46.03
2023-11-24T21:13:13.624Z,20.08
2023-11-24T21:18:19.456Z,22.20
2023-11-24T21:23:24.354Z,20.38
2023-11-24T21:28:28.603Z,17.58
2023-11-24T21:33:34.159Z,24.75
2023-11-24T21:38:38.352Z,24.48
2023-11-24T21:43:42.436Z,24.48
2023-11-24T21:48:48.765Z,34.78
2023-11-24T21:53:52.845Z,28.40
2023-11-24T21:58:57.117Z,33.28
2023-11-24T22:04:04.437Z,27.50
2023-11-24T22:09:09.081Z,21.65
2023-11-24T22:14:13.233Z,23.40
2023-11-24T22:19:20.460Z,19.98
2023-11-24T22:24:25.171Z,17.30
2023-11-24T22:29:29.498Z,17.42
2023-11-24T22:34:34.934Z,22.67
2023-11-24T22:39:40.575Z,16.70
2023-11-24T22:44:46.356Z,19.65
2023-11-24T22:49:52.910Z,21.55
2023-11-24T22:54:57.171Z,14.63
2023-11-24T23:00:02.724Z,12.95
2023-11-24T23:05:09.869Z,27.13
2023-11-24T23:10:18.862Z,29.08
2023-11-24T23:15:25.619Z,41.78
2023-11-24T23:20:30.925Z,22.63
2023-11-24T23:25:34.978Z,15.95
2023-11-24T23:30:40.125Z,32.08
2023-11-24T23:35:47.073Z,36.80
2023-11-24T23:40:52.664Z,51.58
2023-11-24T23:45:56.732Z,42.97
2023-11-24T23:51:02.140Z,39.45
2023-11-24T23:56:07.192Z,44.60
